Time;durP1;ratioP1;P1;durP2;ratioP2;P2;SDS_P1;SDS_P2;PMS_P1;PMS_P2;Temp;Humidity;BMP_temperature;BMP_pressure;BME280_temperature;BME280_humidity;BME280_pressure;Samples;Min_cycle;Max_cycle;Signal;HPM_P1;HPM_P2
2022/03/11 00:02:07;;;;;;;20.25;8.32;;;;;;;;;;5074362;28;20414;-66
2022/03/11 00:04:33;;;;;;;18.73;7.85;;;;;;;;;;5069830;28;20524;-63
2022/03/11 00:06:58;;;;;;;18.88;7.80;;;;;;;;;;5056648;28;20099;-68
2022/03/11 00:09:24;;;;;;;19.58;7.50;;;;;;;;;;5061116;28;20035;-70
2022/03/11 00:11:50;;;;;;;18.67;7.63;;;;;;;;;;5053722;28;20533;-67
2022/03/11 00:14:16;;;;;;;17.52;6.85;;;;;;;;;;5072320;28;20021;-71
2022/03/11 00:16:42;;;;;;;18.35;6.75;;;;;;;;;;5064921;28;20117;-59
2022/03/11 00:19:08;;;;;;;17.42;6.88;;;;;;;;;;5068727;28;20358;-70
2022/03/11 00:21:34;;;;;;;18.08;6.53;;;;;;;;;;5071360;28;20063;-62
2022/03/11 00:24:00;;;;;;;17.33;6.57;;;;;;;;;;5073793;28;20040;-69
2022/03/11 00:26:26;;;;;;;17.13;6.50;;;;;;;;;;5071749;28;20021;-67
2022/03/11 00:28:52;;;;;;;17.17;6.10;;;;;;;;;;5072684;28;20025;-70
2022/03/11 00:31:18;;;;;;;17.60;6.32;;;;;;;;;;5074192;28;20078;-70
2022/03/11 00:33:45;;;;;;;16.33;6.05;;;;;;;;;;5073914;28;20028;-68
2022/03/11 00:36:11;;;;;;;16.10;5.75;;;;;;;;;;5074315;28;20453;-63
2022/03/11 00:38:37;;;;;;;15.55;5.53;;;;;;;;;;5073852;28;20025;-62
2022/03/11 00:41:03;;;;;;;13.95;5.25;;;;;;;;;;5071915;28;20031;-65
2022/03/11 00:43:29;;;;;;;17.20;5.53;;;;;;;;;;5072986;28;20440;-65
2022/03/11 00:45:55;;;;;;;15.85;5.25;;;;;;;;;;5073349;28;20029;-71
2022/03/11 00:48:22;;;;;;;14.82;5.28;;;;;;;;;;5073384;28;20035;-67
2022/03/11 00:50:49;;;;;;;15.23;5.05;;;;;;;;;;5073612;28;20121;-64
2022/03/11 00:53:15;;;;;;;15.52;5.18;;;;;;;;;;5073752;28;20025;-69
2022/03/11 00:55:41;;;;;;;14.57;4.90;;;;;;;;;;5073638;28;20491;-68
2022/03/11 00:58:07;;;;;;;15.23;5.25;;;;;;;;;;5073685;28;20024;-66
2022/03/11 01:00:33;;;;;;;14.95;4.60;;;;;;;;;;5073648;28;20063;-66
2022/03/11 01:02:59;;;;;;;14.88;4.80;;;;;;;;;;5073466;28;20058;-60
2022/03/11 01:05:25;;;;;;;16.25;5.00;;;;;;;;;;5073670;28;20078;-64
2022/03/11 01:07:52;;;;;;;13.98;4.93;;;;;;;;;;5073467;28;20016;-71
2022/03/11 01:10:19;;;;;;;14.85;4.85;;;;;;;;;;5073759;28;20291;-71
2022/03/11 01:12:45;;;;;;;16.08;4.95;;;;;;;;;;5073475;28;20021;-70
2022/03/11 01:15:11;;;;;;;17.60;4.80;;;;;;;;;;5073396;28;20020;-70
2022/03/11 01:17:37;;;;;;;14.90;4.50;;;;;;;;;;5073124;28;20067;-70
2022/03/11 01:20:04;;;;;;;14.10;4.53;;;;;;;;;;5072741;28;20033;-70
2022/03/11 01:22:30;;;;;;;12.77;4.40;;;;;;;;;;5073087;28;20029;-66
2022/03/11 01:24:56;;;;;;;13.45;4.50;;;;;;;;;;5072804;28;20103;-69
2022/03/11 01:27:22;;;;;;;13.77;4.47;;;;;;;;;;5073341;28;20118;-69
2022/03/11 01:29:48;;;;;;;12.13;4.45;;;;;;;;;;5073093;28;20029;-69
2022/03/11 01:32:14;;;;;;;13.85;4.40;;;;;;;;;;5073395;28;20025;-67
2022/03/11 01:34:41;;;;;;;12.27;4.30;;;;;;;;;;5073080;28;20028;-61
2022/03/11 01:37:07;;;;;;;13.75;4.57;;;;;;;;;;5073084;28;20417;-62
2022/03/11 01:39:33;;;;;;;12.77;4.20;;;;;;;;;;5073166;28;20054;-57
2022/03/11 01:41:59;;;;;;;13.95;4.20;;;;;;;;;;5073374;28;20035;-58
2022/03/11 01:44:26;;;;;;;13.43;4.60;;;;;;;;;;5072985;28;20398;-57
2022/03/11 01:46:52;;;;;;;12.95;4.55;;;;;;;;;;5072909;28;20070;-57
2022/03/11 01:49:19;;;;;;;12.38;4.10;;;;;;;;;;5073036;28;20063;-68
2022/03/11 01:51:45;;;;;;;12.63;4.10;;;;;;;;;;5073012;28;20074;-64
2022/03/11 01:54:11;;;;;;;12.98;4.25;;;;;;;;;;5072850;28;20039;-57
2022/03/11 01:56:37;;;;;;;14.43;4.38;;;;;;;;;;5072932;28;20056;-57
2022/03/11 01:59:04;;;;;;;13.20;4.32;;;;;;;;;;5072891;28;20047;-62
2022/03/11 02:01:30;;;;;;;15.27;4.57;;;;;;;;;;5073052;28;20020;-66
2022/03/11 02:03:59;;;;;;;13.20;4.25;;;;;;;;;;5072902;28;20036;-58
2022/03/11 02:06:26;;;;;;;11.90;4.10;;;;;;;;;;5072983;28;20077;-68
2022/03/11 02:08:52;;;;;;;13.25;4.13;;;;;;;;;;5073167;28;20060;-66
2022/03/11 02:11:19;;;;;;;11.88;4.10;;;;;;;;;;5072886;28;20021;-67
2022/03/11 02:13:46;;;;;;;12.30;4.30;;;;;;;;;;5072340;28;20028;-67
2022/03/11 02:16:16;;;;;;;10.35;3.85;;;;;;;;;;5072043;28;20086;-65
2022/03/11 02:18:42;;;;;;;10.77;3.72;;;;;;;;;;5072417;28;20135;-65
2022/03/11 02:21:09;;;;;;;12.20;4.10;;;;;;;;;;5072683;28;20016;-71
2022/03/11 02:23:54;;;;;;;11.93;4.03;;;;;;;;;;5072763;28;20039;-58
2022/03/11 02:26:22;;;;;;;13.00;4.15;;;;;;;;;;5072480;28;20036;-58
2022/03/11 02:28:49;;;;;;;12.73;4.28;;;;;;;;;;5072817;28;20019;-67
2022/03/11 02:31:15;;;;;;;10.93;3.85;;;;;;;;;;5072241;28;20085;-65
2022/03/11 02:33:41;;;;;;;12.82;4.10;;;;;;;;;;5072777;28;20483;-63
2022/03/11 02:36:07;;;;;;;12.95;4.28;;;;;;;;;;5072581;28;20539;-57
2022/03/11 02:38:33;;;;;;;12.57;4.00;;;;;;;;;;5072556;28;20142;-58
2022/03/11 02:40:59;;;;;;;12.75;4.30;;;;;;;;;;5072397;28;20033;-58
2022/03/11 02:43:26;;;;;;;14.60;4.47;;;;;;;;;;5073471;28;20020;-59
2022/03/11 02:45:52;;;;;;;12.95;3.97;;;;;;;;;;5056760;28;20035;-58
2022/03/11 02:48:18;;;;;;;13.52;4.13;;;;;;;;;;5076439;28;20058;-60
2022/03/11 02:50:44;;;;;;;14.23;4.20;;;;;;;;;;5075918;28;20103;-57
2022/03/11 02:53:10;;;;;;;13.90;4.10;;;;;;;;;;5076787;28;20081;-58
2022/03/11 02:55:36;;;;;;;10.93;3.90;;;;;;;;;;5076549;28;20415;-59
2022/03/11 02:58:02;;;;;;;12.77;4.30;;;;;;;;;;5076645;28;20465;-61
2022/03/11 03:00:28;;;;;;;12.48;4.10;;;;;;;;;;5076361;28;20024;-59
2022/03/11 03:02:54;;;;;;;15.57;4.30;;;;;;;;;;5076090;28;20032;-69
2022/03/11 03:05:20;;;;;;;13.48;4.20;;;;;;;;;;5076169;28;20427;-57
2022/03/11 03:07:46;;;;;;;11.32;3.90;;;;;;;;;;5075604;28;20035;-58
2022/03/11 03:10:13;;;;;;;10.27;4.05;;;;;;;;;;5057768;28;20036;-57
2022/03/11 03:12:39;;;;;;;12.38;4.05;;;;;;;;;;5075725;28;20029;-57
2022/03/11 03:15:05;;;;;;;12.02;4.07;;;;;;;;;;5075720;28;20381;-61
2022/03/11 03:17:31;;;;;;;13.05;4.15;;;;;;;;;;5075681;28;20029;-61
2022/03/11 03:19:57;;;;;;;13.23;4.22;;;;;;;;;;5075933;28;20394;-58
2022/03/11 03:22:23;;;;;;;14.93;4.30;;;;;;;;;;5075795;28;20130;-57
2022/03/11 03:24:49;;;;;;;13.23;4.22;;;;;;;;;;5075685;28;20041;-57
2022/03/11 03:27:16;;;;;;;14.05;4.20;;;;;;;;;;5075933;28;20021;-59
2022/03/11 03:29:42;;;;;;;13.02;4.45;;;;;;;;;;5075360;28;20496;-57
2022/03/11 03:32:08;;;;;;;14.82;4.70;;;;;;;;;;5075561;28;20416;-57
2022/03/11 03:34:35;;;;;;;13.88;4.30;;;;;;;;;;5075571;28;20070;-58
2022/03/11 03:37:03;;;;;;;12.93;4.35;;;;;;;;;;5075624;28;20047;-57
2022/03/11 03:39:29;;;;;;;12.57;4.22;;;;;;;;;;5075569;28;20039;-57
2022/03/11 03:41:55;;;;;;;12.82;4.20;;;;;;;;;;5075231;28;20052;-57
2022/03/11 03:44:22;;;;;;;14.02;4.20;;;;;;;;;;5075063;28;20063;-61
2022/03/11 03:46:48;;;;;;;14.65;4.50;;;;;;;;;;5075131;28;20421;-59
2022/03/11 03:49:14;;;;;;;14.20;4.32;;;;;;;;;;5075374;28;20032;-60
2022/03/11 03:51:40;;;;;;;13.55;4.47;;;;;;;;;;5075193;28;20036;-57
2022/03/11 03:54:07;;;;;;;14.00;4.35;;;;;;;;;;5072553;28;20292;-57
2022/03/11 03:56:35;;;;;;;15.27;4.70;;;;;;;;;;5073895;28;20024;-59
2022/03/11 03:59:04;;;;;;;13.13;4.53;;;;;;;;;;5074919;28;20054;-57
2022/03/11 04:01:31;;;;;;;12.43;4.18;;;;;;;;;;5074944;28;20393;-58
2022/03/11 04:03:57;;;;;;;13.07;4.55;;;;;;;;;;5074643;28;20111;-57
2022/03/11 04:06:24;;;;;;;12.80;4.40;;;;;;;;;;5074759;28;20031;-57
2022/03/11 04:08:50;;;;;;;13.95;4.50;;;;;;;;;;5074548;28;20501;-57
2022/03/11 04:11:16;;;;;;;14.93;4.80;;;;;;;;;;5074672;28;20024;-57
2022/03/11 04:13:43;;;;;;;13.55;4.50;;;;;;;;;;5074735;28;20024;-58
2022/03/11 04:16:09;;;;;;;14.90;4.70;;;;;;;;;;5074828;28;20108;-57
2022/03/11 04:18:35;;;;;;;16.23;4.55;;;;;;;;;;5074748;28;20060;-57
2022/03/11 04:21:01;;;;;;;14.85;4.68;;;;;;;;;;5074713;28;20091;-58
2022/03/11 04:23:27;;;;;;;16.40;4.60;;;;;;;;;;5074640;28;20024;-57
2022/03/11 04:25:53;;;;;;;15.15;4.75;;;;;;;;;;5074322;28;20029;-58
2022/03/11 04:28:19;;;;;;;15.00;4.70;;;;;;;;;;5072019;28;20384;-58
2022/03/11 04:30:45;;;;;;;15.25;4.60;;;;;;;;;;5074491;28;20028;-57
2022/03/11 04:33:11;;;;;;;14.13;4.70;;;;;;;;;;5073104;28;20548;-57
2022/03/11 04:35:37;;;;;;;13.90;4.80;;;;;;;;;;5074007;28;20032;-57
2022/03/11 04:38:03;;;;;;;15.32;4.70;;;;;;;;;;5074070;28;20028;-57
2022/03/11 04:40:29;;;;;;;14.95;4.40;;;;;;;;;;5074148;28;20517;-57
2022/03/11 04:42:55;;;;;;;14.88;4.75;;;;;;;;;;5074133;28;20028;-57
2022/03/11 04:45:21;;;;;;;16.15;5.18;;;;;;;;;;5074060;28;20033;-57
2022/03/11 04:47:47;;;;;;;17.15;5.15;;;;;;;;;;5073903;28;20029;-57
2022/03/11 04:50:13;;;;;;;16.30;5.00;;;;;;;;;;5074237;28;20037;-57
2022/03/11 04:52:39;;;;;;;14.25;4.50;;;;;;;;;;5074062;28;20043;-57
2022/03/11 04:55:05;;;;;;;16.90;5.10;;;;;;;;;;5069220;28;20025;-58
2022/03/11 04:57:32;;;;;;;14.00;4.32;;;;;;;;;;5053864;28;20498;-57
2022/03/11 04:59:58;;;;;;;14.80;4.60;;;;;;;;;;5053931;28;20120;-57
2022/03/11 05:02:25;;;;;;;15.55;4.85;;;;;;;;;;5053953;28;20028;-57
2022/03/11 05:04:51;;;;;;;15.38;4.63;;;;;;;;;;5053139;28;20072;-57
2022/03/11 05:07:17;;;;;;;15.38;4.97;;;;;;;;;;5053843;28;20025;-57
2022/03/11 05:09:43;;;;;;;16.20;5.22;;;;;;;;;;5053335;28;20040;-58
2022/03/11 05:12:10;;;;;;;15.15;4.53;;;;;;;;;;5053849;28;20379;-57
2022/03/11 05:14:36;;;;;;;16.50;5.00;;;;;;;;;;5053533;28;20382;-57
2022/03/11 05:17:02;;;;;;;13.80;4.63;;;;;;;;;;5053579;28;20371;-57
2022/03/11 05:19:28;;;;;;;16.70;4.88;;;;;;;;;;5053550;28;20029;-58
2022/03/11 05:21:54;;;;;;;16.55;4.93;;;;;;;;;;5053381;28;20031;-58
2022/03/11 05:24:20;;;;;;;14.80;4.85;;;;;;;;;;5053010;28;20041;-57
2022/03/11 05:26:46;;;;;;;14.75;4.78;;;;;;;;;;5053445;28;20021;-57
2022/03/11 05:29:12;;;;;;;15.15;4.82;;;;;;;;;;5053536;28;20017;-58
2022/03/11 05:31:38;;;;;;;15.27;5.10;;;;;;;;;;5053566;28;20017;-57
2022/03/11 05:34:04;;;;;;;15.27;4.63;;;;;;;;;;5053177;28;20039;-57
2022/03/11 05:36:30;;;;;;;14.73;4.90;;;;;;;;;;5053302;28;20040;-66
2022/03/11 05:38:57;;;;;;;15.13;4.70;;;;;;;;;;5052850;28;20098;-57
2022/03/11 05:41:23;;;;;;;14.45;4.78;;;;;;;;;;5053504;28;20056;-70
2022/03/11 05:43:49;;;;;;;14.48;4.65;;;;;;;;;;5053341;28;20474;-59
2022/03/11 05:46:15;;;;;;;15.07;4.60;;;;;;;;;;5053019;28;20025;-58
2022/03/11 05:48:41;;;;;;;14.15;4.70;;;;;;;;;;5053389;28;20524;-71
2022/03/11 05:51:07;;;;;;;14.13;4.60;;;;;;;;;;5053452;28;20053;-70
2022/03/11 05:53:33;;;;;;;14.55;4.50;;;;;;;;;;5064672;28;20032;-70
2022/03/11 05:55:59;;;;;;;14.13;4.47;;;;;;;;;;5056975;28;20032;-71
2022/03/11 05:58:25;;;;;;;14.98;4.60;;;;;;;;;;5057672;28;20028;-57
2022/03/11 06:00:51;;;;;;;14.85;4.55;;;;;;;;;;5068026;28;20129;-57
2022/03/11 06:03:17;;;;;;;16.38;4.88;;;;;;;;;;5054412;28;20470;-58
2022/03/11 06:05:43;;;;;;;15.18;4.60;;;;;;;;;;5071923;28;20032;-59
2022/03/11 06:08:09;;;;;;;14.50;4.47;;;;;;;;;;5060256;28;20028;-58
2022/03/11 06:10:35;;;;;;;15.55;4.82;;;;;;;;;;5046304;28;20028;-58
2022/03/11 06:13:01;;;;;;;15.43;4.55;;;;;;;;;;5072976;28;20598;-57
2022/03/11 06:15:27;;;;;;;16.55;4.68;;;;;;;;;;5070521;28;20021;-68
2022/03/11 06:17:54;;;;;;;15.10;4.70;;;;;;;;;;5074248;28;20504;-58
2022/03/11 06:20:21;;;;;;;16.30;5.00;;;;;;;;;;5069237;28;20041;-58
2022/03/11 06:22:48;;;;;;;15.77;4.70;;;;;;;;;;5056677;28;20021;-57
2022/03/11 06:25:14;;;;;;;14.88;4.75;;;;;;;;;;5057753;28;20033;-58
2022/03/11 06:27:40;;;;;;;14.77;4.68;;;;;;;;;;5057016;28;20025;-57
2022/03/11 06:30:06;;;;;;;13.90;4.53;;;;;;;;;;5060678;28;20047;-57
2022/03/11 06:32:32;;;;;;;14.38;4.72;;;;;;;;;;5074953;28;20107;-57
2022/03/11 06:34:58;;;;;;;14.75;4.82;;;;;;;;;;5074408;28;20441;-58
2022/03/11 06:37:24;;;;;;;14.82;4.45;;;;;;;;;;5075022;28;20028;-57
2022/03/11 06:39:50;;;;;;;14.80;4.80;;;;;;;;;;5063837;28;20056;-60
2022/03/11 06:42:16;;;;;;;14.50;4.65;;;;;;;;;;5073252;28;20063;-57
2022/03/11 06:44:42;;;;;;;16.90;4.95;;;;;;;;;;5074094;28;20063;-57
2022/03/11 06:47:08;;;;;;;14.20;4.53;;;;;;;;;;5056102;28;20087;-58
2022/03/11 06:49:34;;;;;;;14.18;4.60;;;;;;;;;;5067454;28;20128;-57
2022/03/11 06:52:00;;;;;;;15.18;4.60;;;;;;;;;;5072785;28;20111;-57
2022/03/11 06:54:26;;;;;;;16.17;4.90;;;;;;;;;;5060454;28;20039;-62
2022/03/11 06:56:52;;;;;;;14.82;4.63;;;;;;;;;;5056160;28;20037;-60
2022/03/11 06:59:18;;;;;;;15.05;4.70;;;;;;;;;;5053121;28;20094;-58
2022/03/11 07:01:44;;;;;;;16.40;4.72;;;;;;;;;;5054341;28;20497;-61
2022/03/11 07:04:10;;;;;;;15.77;4.65;;;;;;;;;;5056667;28;20072;-61
2022/03/11 07:06:36;;;;;;;13.98;4.60;;;;;;;;;;5075344;28;20473;-57
2022/03/11 07:09:03;;;;;;;14.88;4.60;;;;;;;;;;5075769;28;20050;-60
2022/03/11 07:11:32;;;;;;;14.52;4.72;;;;;;;;;;5074330;28;20126;-60
2022/03/11 07:13:58;;;;;;;13.40;4.57;;;;;;;;;;5076011;28;20146;-62
2022/03/11 07:16:24;;;;;;;16.63;4.75;;;;;;;;;;5065204;28;20496;-61
2022/03/11 07:18:50;;;;;;;15.45;4.72;;;;;;;;;;5074806;28;20037;-61
2022/03/11 07:21:16;;;;;;;16.80;4.63;;;;;;;;;;5073629;28;20107;-62
2022/03/11 07:23:42;;;;;;;15.52;4.80;;;;;;;;;;5075585;28;20032;-61
2022/03/11 07:26:08;;;;;;;14.75;4.68;;;;;;;;;;5059842;28;20029;-60
2022/03/11 07:28:34;;;;;;;13.73;4.32;;;;;;;;;;5056218;28;20493;-61
2022/03/11 07:31:01;;;;;;;15.25;4.60;;;;;;;;;;5059382;28;20028;-62
2022/03/11 07:33:27;;;;;;;16.65;4.90;;;;;;;;;;5055709;28;20025;-60
2022/03/11 07:35:53;;;;;;;17.13;4.68;;;;;;;;;;5055427;28;20027;-60
2022/03/11 07:38:19;;;;;;;14.43;4.68;;;;;;;;;;5065821;28;20546;-61
2022/03/11 07:40:45;;;;;;;15.05;4.68;;;;;;;;;;5066829;28;20012;-60
2022/03/11 07:43:13;;;;;;;13.10;4.32;;;;;;;;;;5074906;28;20037;-61
2022/03/11 07:45:39;;;;;;;18.15;4.97;;;;;;;;;;5068035;28;20032;-60
2022/03/11 07:48:05;;;;;;;14.98;4.70;;;;;;;;;;5054786;28;20025;-60
2022/03/11 07:50:32;;;;;;;16.10;4.57;;;;;;;;;;5054899;28;20040;-61
2022/03/11 07:52:58;;;;;;;14.50;4.78;;;;;;;;;;5055039;28;20496;-59
2022/03/11 07:55:24;;;;;;;17.17;5.28;;;;;;;;;;5055938;28;20036;-59
2022/03/11 07:57:50;;;;;;;17.40;4.65;;;;;;;;;;5054920;28;20031;-59
2022/03/11 08:00:16;;;;;;;16.38;4.80;;;;;;;;;;5066417;28;20032;-59
2022/03/11 08:02:42;;;;;;;16.45;5.00;;;;;;;;;;5065791;28;20025;-60
2022/03/11 08:05:14;;;;;;;16.08;4.55;;;;;;;;;;5060936;28;20366;-61
2022/03/11 08:07:44;;;;;;;14.77;4.57;;;;;;;;;;5052209;28;20036;-59
2022/03/11 08:10:10;;;;;;;17.27;4.60;;;;;;;;;;5056092;28;20033;-59
2022/03/11 08:12:36;;;;;;;16.00;4.78;;;;;;;;;;5064288;28;20096;-61
2022/03/11 08:15:03;;;;;;;15.95;5.20;;;;;;;;;;5062806;28;20021;-61
2022/03/11 08:17:29;;;;;;;15.32;4.75;;;;;;;;;;5063794;28;20029;-59
2022/03/11 08:19:55;;;;;;;16.08;4.90;;;;;;;;;;5061645;28;20075;-59
2022/03/11 08:22:21;;;;;;;15.23;4.60;;;;;;;;;;5060406;28;20036;-60
2022/03/11 08:24:47;;;;;;;18.10;5.05;;;;;;;;;;5058035;28;20470;-68
2022/03/11 08:27:15;;;;;;;16.25;4.78;;;;;;;;;;5060216;28;20028;-60
2022/03/11 08:29:43;;;;;;;14.82;4.53;;;;;;;;;;5054556;28;20036;-62
2022/03/11 08:32:09;;;;;;;16.73;4.95;;;;;;;;;;5055699;28;20376;-62
2022/03/11 08:34:35;;;;;;;17.85;5.05;;;;;;;;;;5064661;28;20367;-61
2022/03/11 08:37:01;;;;;;;15.43;4.95;;;;;;;;;;5060391;28;20028;-61
2022/03/11 08:39:27;;;;;;;14.30;4.60;;;;;;;;;;5062937;28;20028;-60
2022/03/11 08:41:53;;;;;;;14.73;4.35;;;;;;;;;;5054329;28;20713;-66
2022/03/11 13:45:18;;;;;;;393.50;286.02;;;;;;;;;;5828115;22;1551784;-60
2022/03/11 13:47:45;;;;;;;658.25;486.35;;;;;;;;;;5049688;28;20033;-60
2022/03/11 13:50:11;;;;;;;543.47;375.75;;;;;;;;;;5062728;28;20044;-60
2022/03/11 13:52:41;;;;;;;491.75;337.63;;;;;;;;;;5058131;28;20033;-58
2022/03/11 13:55:08;;;;;;;380.35;245.85;;;;;;;;;;5059793;28;20111;-59
2022/03/11 13:57:34;;;;;;;137.60;88.38;;;;;;;;;;5065213;28;20051;-58
2022/03/11 14:00:21;;;;;;;61.53;39.53;;;;;;;;;;5068826;28;20046;-59
2022/03/11 14:02:49;;;;;;;39.13;20.98;;;;;;;;;;5058387;28;20111;-60
2022/03/11 14:05:16;;;;;;;23.65;9.65;;;;;;;;;;5061114;28;20044;-59
2022/03/11 14:07:43;;;;;;;19.02;6.65;;;;;;;;;;5060120;28;20024;-58
2022/03/11 14:10:19;;;;;;;16.90;5.60;;;;;;;;;;5063028;28;20070;-58
2022/03/11 14:12:46;;;;;;;17.95;5.82;;;;;;;;;;5064974;28;20055;-59
2022/03/11 14:15:18;;;;;;;17.38;5.47;;;;;;;;;;5068162;28;20111;-62
2022/03/11 14:17:44;;;;;;;17.10;5.57;;;;;;;;;;5065639;28;20447;-59
2022/03/11 14:20:11;;;;;;;19.67;5.38;;;;;;;;;;5057894;28;20025;-59
2022/03/11 14:22:38;;;;;;;15.25;4.97;;;;;;;;;;5062073;28;20057;-60
2022/03/11 14:25:05;;;;;;;15.48;4.68;;;;;;;;;;5061942;28;20028;-61
2022/03/11 14:27:31;;;;;;;15.45;4.80;;;;;;;;;;5061579;28;20627;-61
2022/03/11 14:29:57;;;;;;;15.93;4.75;;;;;;;;;;5068649;28;20083;-60
2022/03/11 14:32:23;;;;;;;14.25;4.78;;;;;;;;;;5062172;28;20025;-60
2022/03/11 14:34:49;;;;;;;19.08;4.95;;;;;;;;;;5062825;28;20028;-61
2022/03/11 14:37:15;;;;;;;15.90;4.90;;;;;;;;;;5066177;28;20388;-61
2022/03/11 14:39:42;;;;;;;17.50;5.25;;;;;;;;;;5065505;28;20025;-61
2022/03/11 14:42:08;;;;;;;15.77;4.82;;;;;;;;;;5068978;28;20103;-60
2022/03/11 14:44:34;;;;;;;15.25;4.47;;;;;;;;;;5058440;28;20076;-60
2022/03/11 14:47:00;;;;;;;14.70;4.65;;;;;;;;;;5048905;28;20025;-60
2022/03/11 14:49:27;;;;;;;16.80;5.10;;;;;;;;;;5049627;28;20033;-61
2022/03/11 14:51:53;;;;;;;17.40;5.20;;;;;;;;;;5051632;28;20036;-61
2022/03/11 14:54:19;;;;;;;16.52;5.00;;;;;;;;;;5052028;28;20032;-62
2022/03/11 14:56:46;;;;;;;18.90;5.15;;;;;;;;;;5054471;28;20459;-61
2022/03/11 14:59:12;;;;;;;19.92;5.35;;;;;;;;;;5055364;28;20405;-64
2022/03/11 15:01:39;;;;;;;26.30;6.15;;;;;;;;;;5051213;28;20029;-62
2022/03/11 15:04:06;;;;;;;17.67;5.55;;;;;;;;;;5055795;28;20456;-63
2022/03/11 15:06:32;;;;;;;19.10;5.78;;;;;;;;;;5050254;28;20048;-61
2022/03/11 15:08:59;;;;;;;17.10;5.35;;;;;;;;;;5055676;28;20055;-61
2022/03/11 15:11:25;;;;;;;16.05;5.15;;;;;;;;;;5055491;28;20103;-62
2022/03/11 15:13:51;;;;;;;21.45;6.10;;;;;;;;;;5051952;28;20067;-60
2022/03/11 15:16:17;;;;;;;22.20;5.25;;;;;;;;;;5054400;28;20035;-60
2022/03/11 15:18:43;;;;;;;24.65;5.60;;;;;;;;;;5053044;28;20064;-62
2022/03/11 15:21:10;;;;;;;20.85;5.50;;;;;;;;;;5036029;28;20064;-65
2022/03/11 15:23:39;;;;;;;24.15;5.18;;;;;;;;;;5048495;28;20504;-64
2022/03/11 15:26:06;;;;;;;22.83;5.50;;;;;;;;;;5059915;28;20041;-65
2022/03/11 15:28:32;;;;;;;23.92;5.68;;;;;;;;;;5055878;28;20029;-65
2022/03/11 15:30:59;;;;;;;20.10;6.47;;;;;;;;;;5054687;28;20033;-62
2022/03/11 15:33:25;;;;;;;22.92;5.93;;;;;;;;;;5055221;28;20055;-64
2022/03/11 15:35:51;;;;;;;21.90;5.90;;;;;;;;;;5065582;28;20549;-59
2022/03/11 15:38:19;;;;;;;22.30;7.25;;;;;;;;;;5060539;28;20033;-67
2022/03/11 15:40:45;;;;;;;66.43;39.83;;;;;;;;;;5035589;28;20091;-60
2022/03/11 15:43:12;;;;;;;38.78;22.02;;;;;;;;;;5063039;28;20025;-61
2022/03/11 15:45:41;;;;;;;37.33;19.48;;;;;;;;;;5034768;28;20397;-62
2022/03/11 15:48:07;;;;;;;34.33;13.38;;;;;;;;;;5065926;28;20478;-68
2022/03/11 15:50:35;;;;;;;25.77;10.65;;;;;;;;;;5069686;28;20034;-61
2022/03/11 15:53:02;;;;;;;24.52;8.23;;;;;;;;;;5051013;28;20116;-62
2022/03/11 15:55:29;;;;;;;24.65;7.88;;;;;;;;;;5037354;28;20397;-61
2022/03/11 15:57:56;;;;;;;25.25;7.13;;;;;;;;;;5050411;28;20025;-61
2022/03/11 16:00:23;;;;;;;25.60;6.40;;;;;;;;;;5054378;28;20033;-61
2022/03/11 16:02:49;;;;;;;21.63;6.18;;;;;;;;;;5055069;28;20481;-60
2022/03/11 16:05:16;;;;;;;21.40;6.60;;;;;;;;;;5054079;28;20043;-61
2022/03/11 16:07:42;;;;;;;26.58;6.45;;;;;;;;;;5054192;28;20067;-64
2022/03/11 16:10:09;;;;;;;25.77;6.25;;;;;;;;;;5054743;28;20145;-60
2022/03/11 16:12:36;;;;;;;26.98;6.35;;;;;;;;;;5054163;28;20021;-60
2022/03/11 16:15:02;;;;;;;22.17;5.82;;;;;;;;;;5054361;28;20033;-62
2022/03/11 16:17:28;;;;;;;20.88;5.63;;;;;;;;;;5054557;28;20056;-62
2022/03/11 16:19:54;;;;;;;23.40;5.38;;;;;;;;;;5053639;28;20543;-59
2022/03/11 16:22:21;;;;;;;31.13;6.03;;;;;;;;;;5053403;28;20175;-68
2022/03/11 16:24:49;;;;;;;25.15;5.43;;;;;;;;;;5053166;28;20048;-60
2022/03/11 16:27:15;;;;;;;21.38;5.15;;;;;;;;;;5053290;28;20018;-60
2022/03/11 16:29:42;;;;;;;25.42;5.75;;;;;;;;;;5053137;28;20025;-66
2022/03/11 16:32:08;;;;;;;23.48;5.53;;;;;;;;;;5053596;28;20071;-60
2022/03/11 16:34:34;;;;;;;23.75;5.55;;;;;;;;;;5053631;28;20029;-62
2022/03/11 16:37:00;;;;;;;24.55;5.50;;;;;;;;;;5053837;28;20104;-62
2022/03/11 16:39:26;;;;;;;27.45;5.45;;;;;;;;;;5053788;28;20216;-61
2022/03/11 16:41:52;;;;;;;24.55;5.57;;;;;;;;;;5052820;28;20432;-62
2022/03/11 16:44:19;;;;;;;20.17;4.95;;;;;;;;;;5052897;28;20124;-62
2022/03/11 16:46:47;;;;;;;22.77;4.95;;;;;;;;;;5053341;28;20429;-63
2022/03/11 16:49:14;;;;;;;21.73;5.00;;;;;;;;;;5053514;28;20063;-61
2022/03/11 16:51:40;;;;;;;21.88;5.00;;;;;;;;;;5053498;28;20027;-61
2022/03/11 16:54:06;;;;;;;21.92;4.55;;;;;;;;;;5050781;28;20035;-61
2022/03/11 16:56:32;;;;;;;18.75;4.63;;;;;;;;;;5053418;28;20108;-61
2022/03/11 16:58:58;;;;;;;17.15;4.63;;;;;;;;;;5052870;28;20085;-61
2022/03/11 17:01:24;;;;;;;16.27;4.50;;;;;;;;;;5035012;28;20067;-62
2022/03/11 17:03:50;;;;;;;18.05;4.43;;;;;;;;;;5053594;28;20500;-61
2022/03/11 17:06:16;;;;;;;18.13;4.50;;;;;;;;;;5053683;28;20025;-61
2022/03/11 17:08:42;;;;;;;17.58;4.80;;;;;;;;;;5053631;28;20535;-61
2022/03/11 17:11:08;;;;;;;19.25;4.40;;;;;;;;;;5053559;28;20056;-61
2022/03/11 17:13:34;;;;;;;19.33;4.65;;;;;;;;;;5053282;28;20048;-60
2022/03/11 17:16:02;;;;;;;15.23;4.80;;;;;;;;;;5053508;28;20040;-61
2022/03/11 17:18:28;;;;;;;17.20;4.63;;;;;;;;;;5053150;28;20017;-61
2022/03/11 17:20:54;;;;;;;18.90;4.30;;;;;;;;;;5053635;28;20048;-61
2022/03/11 17:23:20;;;;;;;15.35;4.65;;;;;;;;;;5053275;28;20039;-61
2022/03/11 17:25:46;;;;;;;14.10;4.18;;;;;;;;;;5052947;28;20035;-61
2022/03/11 17:28:12;;;;;;;15.75;4.30;;;;;;;;;;5053034;28;20025;-60
2022/03/11 17:30:38;;;;;;;17.70;4.32;;;;;;;;;;5053207;28;20029;-61
2022/03/11 17:33:04;;;;;;;13.77;3.80;;;;;;;;;;5053380;28;20051;-60
2022/03/11 17:35:31;;;;;;;14.75;4.25;;;;;;;;;;5052562;28;20377;-63
2022/03/11 17:37:57;;;;;;;14.90;4.28;;;;;;;;;;5052549;28;20112;-61
2022/03/11 17:40:23;;;;;;;14.88;4.00;;;;;;;;;;5051506;28;20056;-61
2022/03/11 17:42:49;;;;;;;14.90;3.83;;;;;;;;;;5050217;28;20515;-61
2022/03/11 17:45:15;;;;;;;17.33;4.28;;;;;;;;;;5052574;28;20044;-61
2022/03/11 17:47:42;;;;;;;13.48;4.03;;;;;;;;;;5052932;28;20037;-61
2022/03/11 17:50:09;;;;;;;13.07;3.95;;;;;;;;;;5052786;28;20036;-61
2022/03/11 17:52:35;;;;;;;15.77;4.10;;;;;;;;;;5043741;28;20018;-61
2022/03/11 17:55:03;;;;;;;14.98;3.95;;;;;;;;;;5052713;28;20473;-61
2022/03/11 17:57:29;;;;;;;10.90;3.67;;;;;;;;;;5052412;28;20025;-61
2022/03/11 17:59:57;;;;;;;13.05;3.92;;;;;;;;;;5052542;28;20024;-62
2022/03/11 18:02:23;;;;;;;14.20;3.70;;;;;;;;;;5052595;28;20024;-61
2022/03/11 18:04:49;;;;;;;16.45;4.40;;;;;;;;;;5052585;28;20028;-61
2022/03/11 18:07:15;;;;;;;14.23;4.05;;;;;;;;;;5053205;28;20448;-61
2022/03/11 18:09:42;;;;;;;11.43;3.97;;;;;;;;;;5052691;28;20435;-61
2022/03/11 18:12:09;;;;;;;15.77;4.05;;;;;;;;;;5052606;28;20075;-61
2022/03/11 18:14:35;;;;;;;12.02;3.95;;;;;;;;;;5052105;28;20025;-62
2022/03/11 18:17:01;;;;;;;15.95;4.10;;;;;;;;;;5052537;28;20056;-61
2022/03/11 18:19:28;;;;;;;12.15;4.00;;;;;;;;;;5052851;28;20044;-61
2022/03/11 18:21:54;;;;;;;14.95;4.47;;;;;;;;;;5052694;28;20056;-61
2022/03/11 18:24:20;;;;;;;14.00;3.97;;;;;;;;;;5052937;28;20037;-62
2022/03/11 18:26:46;;;;;;;12.75;4.07;;;;;;;;;;5052676;28;20048;-62
2022/03/11 18:29:14;;;;;;;13.15;4.10;;;;;;;;;;5053121;28;20032;-62
2022/03/11 18:31:41;;;;;;;11.77;4.07;;;;;;;;;;5052762;28;20055;-62
2022/03/11 18:34:07;;;;;;;12.77;4.47;;;;;;;;;;5052827;28;20054;-62
2022/03/11 18:36:34;;;;;;;10.18;3.88;;;;;;;;;;5052747;28;20112;-62
2022/03/11 18:39:00;;;;;;;10.73;3.70;;;;;;;;;;5053073;28;20021;-61
2022/03/11 18:41:27;;;;;;;9.00;3.75;;;;;;;;;;5052305;28;20060;-61
2022/03/11 18:43:54;;;;;;;12.52;4.28;;;;;;;;;;5052412;28;20109;-62
2022/03/11 18:46:20;;;;;;;12.88;4.20;;;;;;;;;;5052286;28;20037;-61
2022/03/11 18:48:47;;;;;;;14.93;4.20;;;;;;;;;;5052582;28;20037;-61
2022/03/11 18:51:14;;;;;;;12.13;3.92;;;;;;;;;;5034506;28;20032;-61
2022/03/11 18:53:40;;;;;;;12.38;4.20;;;;;;;;;;5052295;28;20021;-61
2022/03/11 18:56:06;;;;;;;11.88;4.20;;;;;;;;;;5052277;28;20116;-62
2022/03/11 18:58:33;;;;;;;13.48;4.30;;;;;;;;;;5052595;28;20036;-61
2022/03/11 19:00:59;;;;;;;13.38;4.10;;;;;;;;;;5052565;28;20100;-62
2022/03/11 19:03:25;;;;;;;14.65;4.47;;;;;;;;;;5052427;28;20025;-62
2022/03/11 19:05:51;;;;;;;13.93;4.22;;;;;;;;;;5052199;28;20036;-62
2022/03/11 19:08:18;;;;;;;14.82;4.60;;;;;;;;;;5052187;28;20056;-61
2022/03/11 19:10:45;;;;;;;16.15;4.30;;;;;;;;;;5052136;28;20100;-61
2022/03/11 19:13:11;;;;;;;12.27;4.20;;;;;;;;;;5052388;28;20029;-61
2022/03/11 19:15:37;;;;;;;13.25;4.30;;;;;;;;;;5052118;28;20205;-62
2022/03/11 19:18:03;;;;;;;15.48;4.30;;;;;;;;;;5052431;28;20032;-62
2022/03/11 19:20:29;;;;;;;15.23;4.40;;;;;;;;;;5052381;28;20029;-61
2022/03/11 19:22:55;;;;;;;13.35;4.50;;;;;;;;;;5052182;28;20096;-61
2022/03/11 19:25:23;;;;;;;11.55;4.13;;;;;;;;;;5054237;28;20439;-61